Otis, LA (71466)

4:41 PM CST on November 23, 2014 (GMT -0600)
RAWS EVANGELINE/GARDNER LA US | Change Station
CLOSE
Current Station
Personal Weather Station
Location: Alexandria, LA
Elevation: 185 ft
Nearby Weather Stations

Elev 185 ft 31.18 °N, 92.63 °W | Updated 55 minutes ago

Clear
Clear
73 °F
Feels Like 76 °F
N
9
Wind Variable Wind from SSW
Gusts 15.0 mph

Today
High -- | Low -- °F
--% Chance of Precip.
Yesterday
High -- | Low -- °F
Precip. -- in
6:45 AM 5:09 PM
New Moon, 2% visible
Pressure 29.52 in
Visibility 10.0 miles
Clouds Clear
Heat Index 76 °F
Dew Point 59 °F
Humidity 61%
Rainfall 0.86 in
Snow Depth Not available.
UV 1 out of 12
Pollen .40 out of 12
Air Quality Not available.
Flu Activity Not available.
METAR KAEX 232153Z AUTO 18012G22KT 10SM CLR 22/16 A2951 RMK AO2 SLP996 T02220156

More Conditions Fewer Conditions

Pressure 29.52 in
Visibility 10.0 miles
Clouds Clear
Heat Index 76 °F
Dew Point 59 °F
Humidity 61%
Rainfall 0.86 in
Snow Depth Not available.
UV 1 out of 12
Pollen .40 out of 12
Air Quality Not available.
Flu Activity Not available.
METAR KAEX 232153Z AUTO 18012G22KT 10SM CLR 22/16 A2951 RMK AO2 SLP996 T02220156

More Conditions Fewer Conditions

10-Day Weather Forecast

Almanac

Astronomy

Nov. 23, 2014 Rise Set
Actual Time
Civil Twilight
Nautical Twilight
Astronomical Twilight
Moon
Length of Visible Light
Length of Day
Tomorrow will be .
, % of the Moon is Illuminated

Today's Extremes

State Highs State Lows

Community

WunderPhotos

Upload Photos

1,773,187 photos uploaded!

WunderBlogs® & News

Nearby

Air Quality

  Air Quality AQ Index Pollutant
Not available.

Snow Depth

Station Depth Elevation

Earthquake Activity

City Distance Mag. Time & Date
Minimum magnitude displayed is 2.5.

Coastal Water Temperatures

Place Temperature

Nearby Weather Stations